sensor_id;sensor_type;location;lat;lon;timestamp;pressure;altitude;pressure_sealevel;temperature;humidity
550;BME280;20066;48.764;9.176;2023-06-04T00:00:46;98163.97;;;20.21;44.27
550;BME280;20066;48.764;9.176;2023-06-04T00:03:14;98166.41;;;20.28;43.98
550;BME280;20066;48.764;9.176;2023-06-04T00:05:43;98167.13;;;19.67;46.48
550;BME280;20066;48.764;9.176;2023-06-04T00:08:11;98171.34;;;19.24;46.79
550;BME280;20066;48.764;9.176;2023-06-04T00:10:39;98175.91;;;19.49;46.19
550;BME280;20066;48.764;9.176;2023-06-04T00:13:07;98178.38;;;19.34;46.89
550;BME280;20066;48.764;9.176;2023-06-04T00:15:35;98171.84;;;19.32;47.31
550;BME280;20066;48.764;9.176;2023-06-04T00:18:03;98173.00;;;19.65;46.26
550;BME280;20066;48.764;9.176;2023-06-04T00:20:31;98162.06;;;19.78;44.90
550;BME280;20066;48.764;9.176;2023-06-04T00:23:00;98161.28;;;19.55;45.81
550;BME280;20066;48.764;9.176;2023-06-04T00:25:28;98163.13;;;19.80;45.33
550;BME280;20066;48.764;9.176;2023-06-04T00:27:55;98167.06;;;20.01;44.65
550;BME280;20066;48.764;9.176;2023-06-04T00:30:23;98177.06;;;20.04;44.87
550;BME280;20066;48.764;9.176;2023-06-04T00:32:51;98172.38;;;20.05;43.73
550;BME280;20066;48.764;9.176;2023-06-04T00:35:19;98167.94;;;19.54;44.17
550;BME280;20066;48.764;9.176;2023-06-04T00:37:47;98175.25;;;19.79;43.55
550;BME280;20066;48.764;9.176;2023-06-04T00:40:16;98172.81;;;19.59;43.83
550;BME280;20066;48.764;9.176;2023-06-04T00:42:44;98175.84;;;17.91;47.08
550;BME280;20066;48.764;9.176;2023-06-04T00:45:12;98174.16;;;18.35;46.54
550;BME280;20066;48.764;9.176;2023-06-04T00:47:42;98174.38;;;18.28;47.96
550;BME280;20066;48.764;9.176;2023-06-04T00:50:10;98168.47;;;18.93;46.04
550;BME280;20066;48.764;9.176;2023-06-04T00:52:38;98173.94;;;19.28;44.66
550;BME280;20066;48.764;9.176;2023-06-04T00:55:07;98173.94;;;18.93;47.54
550;BME280;20066;48.764;9.176;2023-06-04T00:57:37;98189.78;;;19.20;46.17
550;BME280;20066;48.764;9.176;2023-06-04T01:00:06;98183.28;;;19.05;47.38
550;BME280;20066;48.764;9.176;2023-06-04T01:02:35;98187.00;;;18.73;48.47
550;BME280;20066;48.764;9.176;2023-06-04T01:05:10;98189.75;;;18.60;48.55
550;BME280;20066;48.764;9.176;2023-06-04T01:07:39;98196.47;;;18.81;48.06
550;BME280;20066;48.764;9.176;2023-06-04T01:10:12;98193.22;;;18.61;47.42
550;BME280;20066;48.764;9.176;2023-06-04T01:12:41;98200.66;;;17.93;48.73
550;BME280;20066;48.764;9.176;2023-06-04T01:15:10;98194.66;;;18.53;48.46
550;BME280;20066;48.764;9.176;2023-06-04T01:17:40;98190.81;;;18.88;47.50
550;BME280;20066;48.764;9.176;2023-06-04T01:20:18;98196.06;;;18.44;47.16
550;BME280;20066;48.764;9.176;2023-06-04T01:23:00;98197.56;;;18.20;48.36
550;BME280;20066;48.764;9.176;2023-06-04T01:25:36;98194.31;;;18.89;47.55
550;BME280;20066;48.764;9.176;2023-06-04T01:28:08;98194.84;;;19.09;47.32
550;BME280;20066;48.764;9.176;2023-06-04T01:30:38;98193.22;;;18.61;47.84
550;BME280;20066;48.764;9.176;2023-06-04T01:33:10;98197.72;;;18.55;48.65
550;BME280;20066;48.764;9.176;2023-06-04T01:35:39;98193.53;;;18.75;48.42
550;BME280;20066;48.764;9.176;2023-06-04T01:38:07;98189.09;;;18.43;46.93
550;BME280;20066;48.764;9.176;2023-06-04T01:40:35;98193.00;;;18.93;46.77
550;BME280;20066;48.764;9.176;2023-06-04T01:43:03;98193.00;;;18.68;48.20
550;BME280;20066;48.764;9.176;2023-06-04T01:45:33;98183.84;;;18.87;48.01
550;BME280;20066;48.764;9.176;2023-06-04T01:48:02;98179.59;;;18.73;48.19
550;BME280;20066;48.764;9.176;2023-06-04T01:50:30;98185.94;;;18.58;46.46
550;BME280;20066;48.764;9.176;2023-06-04T01:52:58;98197.00;;;18.00;47.12
550;BME280;20066;48.764;9.176;2023-06-04T01:55:26;98191.81;;;18.43;46.84
550;BME280;20066;48.764;9.176;2023-06-04T01:57:56;98182.03;;;18.46;47.60
550;BME280;20066;48.764;9.176;2023-06-04T02:00:23;98179.28;;;18.84;46.68
550;BME280;20066;48.764;9.176;2023-06-04T02:02:53;98183.50;;;18.98;46.38
550;BME280;20066;48.764;9.176;2023-06-04T02:05:22;98188.00;;;18.92;46.75
550;BME280;20066;48.764;9.176;2023-06-04T02:07:51;98182.84;;;18.81;47.18
550;BME280;20066;48.764;9.176;2023-06-04T02:10:19;98186.16;;;18.51;47.97
550;BME280;20066;48.764;9.176;2023-06-04T02:12:56;98192.47;;;18.47;48.44
550;BME280;20066;48.764;9.176;2023-06-04T02:15:24;98195.13;;;17.97;49.27
550;BME280;20066;48.764;9.176;2023-06-04T02:17:56;98195.41;;;18.15;49.88
550;BME280;20066;48.764;9.176;2023-06-04T02:20:26;98198.84;;;17.74;50.43
550;BME280;20066;48.764;9.176;2023-06-04T02:22:54;98195.75;;;18.30;49.10
550;BME280;20066;48.764;9.176;2023-06-04T02:25:22;98182.13;;;18.55;48.42
550;BME280;20066;48.764;9.176;2023-06-04T02:27:50;98193.56;;;18.63;48.27
550;BME280;20066;48.764;9.176;2023-06-04T02:30:18;98189.97;;;18.53;47.18
550;BME280;20066;48.764;9.176;2023-06-04T02:32:45;98203.69;;;18.24;48.06
550;BME280;20066;48.764;9.176;2023-06-04T02:35:20;98197.72;;;17.59;49.50
550;BME280;20066;48.764;9.176;2023-06-04T02:37:49;98194.88;;;17.33;49.01
550;BME280;20066;48.764;9.176;2023-06-04T02:40:17;98198.19;;;17.99;47.35
550;BME280;20066;48.764;9.176;2023-06-04T02:42:45;98203.13;;;17.46;49.29
550;BME280;20066;48.764;9.176;2023-06-04T02:45:12;98191.88;;;17.15;50.69
550;BME280;20066;48.764;9.176;2023-06-04T02:47:40;98195.22;;;17.36;50.54
550;BME280;20066;48.764;9.176;2023-06-04T02:50:09;98204.53;;;17.80;48.87
550;BME280;20066;48.764;9.176;2023-06-04T02:52:38;98204.13;;;17.94;48.44
550;BME280;20066;48.764;9.176;2023-06-04T02:55:09;98204.22;;;17.78;49.87
550;BME280;20066;48.764;9.176;2023-06-04T02:57:40;98196.72;;;17.08;47.00
550;BME280;20066;48.764;9.176;2023-06-04T03:00:10;98198.06;;;17.61;47.14
550;BME280;20066;48.764;9.176;2023-06-04T03:02:40;98206.47;;;17.79;48.26
550;BME280;20066;48.764;9.176;2023-06-04T03:05:11;98201.81;;;17.80;48.87
550;BME280;20066;48.764;9.176;2023-06-04T03:07:42;98200.25;;;17.05;48.48
550;BME280;20066;48.764;9.176;2023-06-04T03:10:12;98206.44;;;17.38;49.18
550;BME280;20066;48.764;9.176;2023-06-04T03:12:40;98205.69;;;17.66;49.74
550;BME280;20066;48.764;9.176;2023-06-04T03:15:08;98216.69;;;17.62;50.25
550;BME280;20066;48.764;9.176;2023-06-04T03:17:37;98209.97;;;17.80;49.57
550;BME280;20066;48.764;9.176;2023-06-04T03:20:06;98203.69;;;17.83;49.61
550;BME280;20066;48.764;9.176;2023-06-04T03:22:34;98202.06;;;17.85;49.62
550;BME280;20066;48.764;9.176;2023-06-04T03:25:04;98219.66;;;17.52;50.71
550;BME280;20066;48.764;9.176;2023-06-04T03:27:33;98222.81;;;17.50;50.81
550;BME280;20066;48.764;9.176;2023-06-04T03:30:01;98222.16;;;17.75;49.02
550;BME280;20066;48.764;9.176;2023-06-04T03:32:29;98219.47;;;17.59;49.42
550;BME280;20066;48.764;9.176;2023-06-04T03:34:57;98222.13;;;17.62;49.22
550;BME280;20066;48.764;9.176;2023-06-04T03:37:25;98221.72;;;17.77;49.25
550;BME280;20066;48.764;9.176;2023-06-04T03:39:53;98226.72;;;17.78;48.79
550;BME280;20066;48.764;9.176;2023-06-04T03:42:22;98227.69;;;17.43;50.21
550;BME280;20066;48.764;9.176;2023-06-04T03:44:50;98226.34;;;17.92;48.90
550;BME280;20066;48.764;9.176;2023-06-04T03:47:18;98228.13;;;17.99;48.98
550;BME280;20066;48.764;9.176;2023-06-04T03:49:45;98225.91;;;17.94;49.26
550;BME280;20066;48.764;9.176;2023-06-04T03:52:13;98224.88;;;17.75;49.76
550;BME280;20066;48.764;9.176;2023-06-04T03:54:41;98231.19;;;18.01;49.28
550;BME280;20066;48.764;9.176;2023-06-04T03:57:09;98234.28;;;18.16;47.25
550;BME280;20066;48.764;9.176;2023-06-04T03:59:38;98232.19;;;18.07;47.88
550;BME280;20066;48.764;9.176;2023-06-04T04:02:06;98230.44;;;18.13;48.82
550;BME280;20066;48.764;9.176;2023-06-04T04:04:34;98234.91;;;17.01;51.09
550;BME280;20066;48.764;9.176;2023-06-04T04:07:02;98240.09;;;17.44;50.53
550;BME280;20066;48.764;9.176;2023-06-04T04:09:29;98239.84;;;17.96;48.75
550;BME280;20066;48.764;9.176;2023-06-04T04:11:57;98235.91;;;17.84;49.34
550;BME280;20066;48.764;9.176;2023-06-04T04:14:25;98232.41;;;17.84;49.15
550;BME280;20066;48.764;9.176;2023-06-04T04:16:55;98237.88;;;17.84;49.29
550;BME280;20066;48.764;9.176;2023-06-04T04:19:23;98232.72;;;17.86;49.39
550;BME280;20066;48.764;9.176;2023-06-04T04:21:50;98233.25;;;18.09;48.26
550;BME280;20066;48.764;9.176;2023-06-04T04:24:24;98229.91;;;18.18;48.44
550;BME280;20066;48.764;9.176;2023-06-04T04:26:52;98235.00;;;18.03;48.34
550;BME280;20066;48.764;9.176;2023-06-04T04:29:20;98240.72;;;17.93;48.59
550;BME280;20066;48.764;9.176;2023-06-04T04:31:51;98251.91;;;17.82;49.16
550;BME280;20066;48.764;9.176;2023-06-04T04:34:20;98251.78;;;17.86;48.65
550;BME280;20066;48.764;9.176;2023-06-04T04:36:48;98260.97;;;17.92;49.08
550;BME280;20066;48.764;9.176;2023-06-04T04:39:18;98252.88;;;18.04;48.35
550;BME280;20066;48.764;9.176;2023-06-04T04:41:46;98261.28;;;17.94;48.77
550;BME280;20066;48.764;9.176;2023-06-04T04:44:14;98256.94;;;17.06;49.57
550;BME280;20066;48.764;9.176;2023-06-04T04:46:42;98260.28;;;16.62;47.67
550;BME280;20066;48.764;9.176;2023-06-04T04:49:11;98260.38;;;16.74;46.53
550;BME280;20066;48.764;9.176;2023-06-04T04:51:40;98261.50;;;17.25;45.75
550;BME280;20066;48.764;9.176;2023-06-04T04:54:08;98257.09;;;17.77;44.76
550;BME280;20066;48.764;9.176;2023-06-04T04:56:36;98269.69;;;17.70;44.30
550;BME280;20066;48.764;9.176;2023-06-04T04:59:03;98258.84;;;16.89;44.78
550;BME280;20066;48.764;9.176;2023-06-04T05:01:31;98265.88;;;16.71;45.63
550;BME280;20066;48.764;9.176;2023-06-04T05:03:59;98265.41;;;16.92;44.81
550;BME280;20066;48.764;9.176;2023-06-04T05:06:29;98269.41;;;17.20;44.88
550;BME280;20066;48.764;9.176;2023-06-04T05:08:58;98260.88;;;17.66;42.90
550;BME280;20066;48.764;9.176;2023-06-04T05:11:26;98275.03;;;17.45;44.46
550;BME280;20066;48.764;9.176;2023-06-04T05:13:55;98278.69;;;18.13;42.77
550;BME280;20066;48.764;9.176;2023-06-04T05:16:23;98272.94;;;17.65;43.67
550;BME280;20066;48.764;9.176;2023-06-04T05:18:51;98273.38;;;17.48;43.89
550;BME280;20066;48.764;9.176;2023-06-04T05:21:19;98277.69;;;17.78;44.42
550;BME280;20066;48.764;9.176;2023-06-04T05:23:47;98278.53;;;17.75;43.14
550;BME280;20066;48.764;9.176;2023-06-04T05:26:16;98278.56;;;18.58;41.15
550;BME280;20066;48.764;9.176;2023-06-04T05:28:44;98285.31;;;18.66;41.60
550;BME280;20066;48.764;9.176;2023-06-04T05:31:12;98289.47;;;18.58;41.24
550;BME280;20066;48.764;9.176;2023-06-04T05:33:42;98293.03;;;18.42;42.82
550;BME280;20066;48.764;9.176;2023-06-04T05:36:10;98297.41;;;18.10;42.19
550;BME280;20066;48.764;9.176;2023-06-04T05:38:38;98289.84;;;17.73;43.25
550;BME280;20066;48.764;9.176;2023-06-04T05:41:06;98291.25;;;18.23;41.64
550;BME280;20066;48.764;9.176;2023-06-04T05:43:35;98300.41;;;18.96;41.14
550;BME280;20066;48.764;9.176;2023-06-04T05:46:03;98291.41;;;17.58;41.64
550;BME280;20066;48.764;9.176;2023-06-04T05:48:32;98287.56;;;17.55;42.71
550;BME280;20066;48.764;9.176;2023-06-04T05:51:00;98289.59;;;17.67;41.35
550;BME280;20066;48.764;9.176;2023-06-04T05:53:28;98290.13;;;17.62;42.09
550;BME280;20066;48.764;9.176;2023-06-04T05:55:56;98296.78;;;18.19;41.34
550;BME280;20066;48.764;9.176;2023-06-04T05:58:24;98299.56;;;18.32;41.38
550;BME280;20066;48.764;9.176;2023-06-04T06:00:53;98314.63;;;18.07;42.05
550;BME280;20066;48.764;9.176;2023-06-04T06:03:20;98303.25;;;17.80;41.47
550;BME280;20066;48.764;9.176;2023-06-04T06:05:48;98308.50;;;17.42;42.95
550;BME280;20066;48.764;9.176;2023-06-04T06:08:16;98313.94;;;17.42;42.71
550;BME280;20066;48.764;9.176;2023-06-04T06:10:44;98309.59;;;17.61;42.33
550;BME280;20066;48.764;9.176;2023-06-04T06:13:12;98309.53;;;17.93;41.04
550;BME280;20066;48.764;9.176;2023-06-04T06:15:40;98308.53;;;17.71;41.58
550;BME280;20066;48.764;9.176;2023-06-04T06:18:10;98309.31;;;17.55;42.87
550;BME280;20066;48.764;9.176;2023-06-04T06:20:37;98310.38;;;17.90;41.14
550;BME280;20066;48.764;9.176;2023-06-04T06:23:05;98312.38;;;17.57;42.46
550;BME280;20066;48.764;9.176;2023-06-04T06:25:33;98315.25;;;18.40;40.89
550;BME280;20066;48.764;9.176;2023-06-04T06:28:01;98330.84;;;19.19;39.25
550;BME280;20066;48.764;9.176;2023-06-04T06:30:29;98320.03;;;19.29;38.98
550;BME280;20066;48.764;9.176;2023-06-04T06:32:57;98325.75;;;18.55;39.58
550;BME280;20066;48.764;9.176;2023-06-04T06:35:26;98325.94;;;19.02;38.46
550;BME280;20066;48.764;9.176;2023-06-04T06:37:54;98325.28;;;19.10;38.19
550;BME280;20066;48.764;9.176;2023-06-04T06:40:22;98332.06;;;18.52;39.24
550;BME280;20066;48.764;9.176;2023-06-04T06:42:50;98327.31;;;17.98;39.84
550;BME280;20066;48.764;9.176;2023-06-04T06:45:19;98332.28;;;18.44;39.19
550;BME280;20066;48.764;9.176;2023-06-04T06:47:47;98335.09;;;19.08;39.28
550;BME280;20066;48.764;9.176;2023-06-04T06:50:15;98333.84;;;18.71;38.83
550;BME280;20066;48.764;9.176;2023-06-04T06:52:45;98336.56;;;19.59;37.70
550;BME280;20066;48.764;9.176;2023-06-04T06:55:13;98329.84;;;19.39;37.79
550;BME280;20066;48.764;9.176;2023-06-04T06:57:40;98331.81;;;18.88;39.10
550;BME280;20066;48.764;9.176;2023-06-04T07:00:09;98327.59;;;19.72;38.28
550;BME280;20066;48.764;9.176;2023-06-04T07:02:37;98331.88;;;20.07;37.13
550;BME280;20066;48.764;9.176;2023-06-04T07:05:06;98326.16;;;20.14;36.27
550;BME280;20066;48.764;9.176;2023-06-04T07:07:33;98327.47;;;18.90;37.80
550;BME280;20066;48.764;9.176;2023-06-04T07:10:03;98338.56;;;18.96;38.59
550;BME280;20066;48.764;9.176;2023-06-04T07:12:31;98330.13;;;19.79;37.29
550;BME280;20066;48.764;9.176;2023-06-04T07:15:00;98328.94;;;19.42;37.67
550;BME280;20066;48.764;9.176;2023-06-04T07:17:27;98327.81;;;19.64;37.69
550;BME280;20066;48.764;9.176;2023-06-04T07:19:55;98339.63;;;19.61;37.27
550;BME280;20066;48.764;9.176;2023-06-04T07:22:23;98331.50;;;19.83;37.67
550;BME280;20066;48.764;9.176;2023-06-04T07:24:51;98337.75;;;20.93;35.71
550;BME280;20066;48.764;9.176;2023-06-04T07:27:21;98335.75;;;20.41;36.28
550;BME280;20066;48.764;9.176;2023-06-04T07:29:48;98336.31;;;19.79;38.09
550;BME280;20066;48.764;9.176;2023-06-04T07:32:16;98331.28;;;20.34;37.57
550;BME280;20066;48.764;9.176;2023-06-04T07:34:44;98340.31;;;20.87;37.03
550;BME280;20066;48.764;9.176;2023-06-04T07:37:12;98339.53;;;21.18;36.39
550;BME280;20066;48.764;9.176;2023-06-04T07:39:41;98341.16;;;21.55;35.48
550;BME280;20066;48.764;9.176;2023-06-04T07:42:09;98331.66;;;22.14;33.93
550;BME280;20066;48.764;9.176;2023-06-04T07:44:39;98334.53;;;23.64;33.23
550;BME280;20066;48.764;9.176;2023-06-04T07:47:06;98331.44;;;22.63;32.65
550;BME280;20066;48.764;9.176;2023-06-04T07:49:34;98336.22;;;23.29;32.76
550;BME280;20066;48.764;9.176;2023-06-04T07:52:16;98337.63;;;22.82;33.42
550;BME280;20066;48.764;9.176;2023-06-04T07:54:43;98330.03;;;21.00;35.23
550;BME280;20066;48.764;9.176;2023-06-04T07:57:11;98326.38;;;19.85;37.68
550;BME280;20066;48.764;9.176;2023-06-04T07:59:40;98323.78;;;22.67;34.06
550;BME280;20066;48.764;9.176;2023-06-04T08:02:08;98334.56;;;24.03;32.65
550;BME280;20066;48.764;9.176;2023-06-04T08:04:36;98324.97;;;24.66;32.05
550;BME280;20066;48.764;9.176;2023-06-04T08:07:04;98329.22;;;23.61;32.08
550;BME280;20066;48.764;9.176;2023-06-04T08:09:32;98318.22;;;21.71;34.22
550;BME280;20066;48.764;9.176;2023-06-04T08:12:00;98311.97;;;21.61;35.14
550;BME280;20066;48.764;9.176;2023-06-04T08:14:28;98318.16;;;22.80;33.88
550;BME280;20066;48.764;9.176;2023-06-04T08:16:58;98313.00;;;24.40;31.92
550;BME280;20066;48.764;9.176;2023-06-04T08:19:26;98321.47;;;22.84;33.59
550;BME280;20066;48.764;9.176;2023-06-04T08:21:54;98313.78;;;21.55;34.85
550;BME280;20066;48.764;9.176;2023-06-04T08:24:22;98310.03;;;21.80;35.84
550;BME280;20066;48.764;9.176;2023-06-04T08:26:50;98309.09;;;21.65;35.41
550;BME280;20066;48.764;9.176;2023-06-04T08:29:18;98316.41;;;22.92;33.89
550;BME280;20066;48.764;9.176;2023-06-04T08:31:45;98313.16;;;23.83;31.69
550;BME280;20066;48.764;9.176;2023-06-04T08:34:15;98319.22;;;23.49;32.50
550;BME280;20066;48.764;9.176;2023-06-04T08:36:43;98313.97;;;22.24;34.29
550;BME280;20066;48.764;9.176;2023-06-04T08:39:10;98318.91;;;23.70;32.65
550;BME280;20066;48.764;9.176;2023-06-04T08:41:42;98321.19;;;22.82;33.32
550;BME280;20066;48.764;9.176;2023-06-04T08:44:11;98308.03;;;21.89;34.46
550;BME280;20066;48.764;9.176;2023-06-04T08:46:40;98316.59;;;22.01;35.03
550;BME280;20066;48.764;9.176;2023-06-04T08:49:08;98311.22;;;22.34;33.70
550;BME280;20066;48.764;9.176;2023-06-04T08:51:37;98315.09;;;22.78;32.89
550;BME280;20066;48.764;9.176;2023-06-04T08:54:08;98314.63;;;25.81;30.58
550;BME280;20066;48.764;9.176;2023-06-04T08:56:36;98307.50;;;23.39;32.55
550;BME280;20066;48.764;9.176;2023-06-04T08:59:05;98305.91;;;22.30;33.83
550;BME280;20066;48.764;9.176;2023-06-04T09:01:35;98305.91;;;22.30;33.96
550;BME280;20066;48.764;9.176;2023-06-04T09:04:05;98315.53;;;23.75;31.76
550;BME280;20066;48.764;9.176;2023-06-04T09:06:41;98309.59;;;24.89;31.38
550;BME280;20066;48.764;9.176;2023-06-04T09:09:10;98315.19;;;23.59;33.05
550;BME280;20066;48.764;9.176;2023-06-04T09:11:46;98318.75;;;23.74;32.35
550;BME280;20066;48.764;9.176;2023-06-04T09:14:16;98311.03;;;24.26;30.64
550;BME280;20066;48.764;9.176;2023-06-04T09:16:45;98321.34;;;26.46;29.19
550;BME280;20066;48.764;9.176;2023-06-04T09:19:14;98316.53;;;24.55;31.12
550;BME280;20066;48.764;9.176;2023-06-04T09:21:51;98311.69;;;24.50;31.59
550;BME280;20066;48.764;9.176;2023-06-04T09:24:20;98322.59;;;24.06;32.22
550;BME280;20066;48.764;9.176;2023-06-04T09:26:48;98321.38;;;23.12;33.88
550;BME280;20066;48.764;9.176;2023-06-04T09:29:17;98324.00;;;23.87;32.25
550;BME280;20066;48.764;9.176;2023-06-04T09:31:45;98316.06;;;24.86;30.55
550;BME280;20066;48.764;9.176;2023-06-04T09:34:14;98319.03;;;25.73;30.34
550;BME280;20066;48.764;9.176;2023-06-04T09:36:42;98319.56;;;24.42;31.76
550;BME280;20066;48.764;9.176;2023-06-04T09:39:19;98323.41;;;25.09;29.61
550;BME280;20066;48.764;9.176;2023-06-04T09:41:57;98307.63;;;24.89;31.40
550;BME280;20066;48.764;9.176;2023-06-04T09:44:25;98318.13;;;26.01;29.10
550;BME280;20066;48.764;9.176;2023-06-04T09:46:54;98308.59;;;23.41;31.82
550;BME280;20066;48.764;9.176;2023-06-04T09:49:22;98315.16;;;23.83;31.08
550;BME280;20066;48.764;9.176;2023-06-04T09:51:50;98312.16;;;25.83;28.77
550;BME280;20066;48.764;9.176;2023-06-04T09:54:20;98311.47;;;24.09;30.48
550;BME280;20066;48.764;9.176;2023-06-04T09:56:47;98317.75;;;24.83;30.19
550;BME280;20066;48.764;9.176;2023-06-04T09:59:16;98316.78;;;25.71;29.08
550;BME280;20066;48.764;9.176;2023-06-04T10:01:44;98312.22;;;25.48;28.26
550;BME280;20066;48.764;9.176;2023-06-04T10:04:13;98313.19;;;25.85;28.16
550;BME280;20066;48.764;9.176;2023-06-04T10:06:42;98309.97;;;25.31;28.01
550;BME280;20066;48.764;9.176;2023-06-04T10:09:13;98318.47;;;25.48;28.98
550;BME280;20066;48.764;9.176;2023-06-04T10:11:47;98312.81;;;26.70;26.04
550;BME280;20066;48.764;9.176;2023-06-04T10:14:20;98315.84;;;26.20;27.93
550;BME280;20066;48.764;9.176;2023-06-04T10:16:49;98317.19;;;26.56;27.42
550;BME280;20066;48.764;9.176;2023-06-04T10:19:18;98313.28;;;27.85;25.82
550;BME280;20066;48.764;9.176;2023-06-04T10:21:47;98314.94;;;24.78;28.80
550;BME280;20066;48.764;9.176;2023-06-04T10:24:15;98301.59;;;25.41;27.56
550;BME280;20066;48.764;9.176;2023-06-04T10:26:44;98300.69;;;27.84;25.12
550;BME280;20066;48.764;9.176;2023-06-04T10:29:12;98305.69;;;27.74;25.08
550;BME280;20066;48.764;9.176;2023-06-04T10:31:42;98295.34;;;26.27;27.31
550;BME280;20066;48.764;9.176;2023-06-04T10:34:11;98299.63;;;27.70;24.88
550;BME280;20066;48.764;9.176;2023-06-04T10:36:43;98293.69;;;26.98;26.07
550;BME280;20066;48.764;9.176;2023-06-04T10:39:11;98299.78;;;27.07;25.78
550;BME280;20066;48.764;9.176;2023-06-04T10:41:39;98306.94;;;27.73;24.30
550;BME280;20066;48.764;9.176;2023-06-04T10:44:09;98296.53;;;28.22;24.84
550;BME280;20066;48.764;9.176;2023-06-04T10:46:38;98294.66;;;31.84;22.41
550;BME280;20066;48.764;9.176;2023-06-04T10:49:09;98300.72;;;30.20;21.73
550;BME280;20066;48.764;9.176;2023-06-04T10:51:37;98298.09;;;28.56;24.54
550;BME280;20066;48.764;9.176;2023-06-04T10:54:05;98292.97;;;29.33;22.47
550;BME280;20066;48.764;9.176;2023-06-04T10:56:34;98299.94;;;29.73;22.65
550;BME280;20066;48.764;9.176;2023-06-04T10:59:14;98306.28;;;30.55;21.80
550;BME280;20066;48.764;9.176;2023-06-04T11:01:43;98294.75;;;30.46;22.16
550;BME280;20066;48.764;9.176;2023-06-04T11:04:21;98292.53;;;33.05;20.36
550;BME280;20066;48.764;9.176;2023-06-04T11:07:00;98296.00;;;33.11;19.19
550;BME280;20066;48.764;9.176;2023-06-04T11:09:30;98285.59;;;34.45;18.76
550;BME280;20066;48.764;9.176;2023-06-04T11:12:00;98283.63;;;32.93;19.86
550;BME280;20066;48.764;9.176;2023-06-04T11:14:29;98282.94;;;30.99;21.73
550;BME280;20066;48.764;9.176;2023-06-04T11:16:57;98295.72;;;32.82;19.69
550;BME280;20066;48.764;9.176;2023-06-04T11:19:35;98289.59;;;31.15;21.18
550;BME280;20066;48.764;9.176;2023-06-04T11:22:03;98299.88;;;33.74;18.79
550;BME280;20066;48.764;9.176;2023-06-04T11:24:32;98282.88;;;29.46;23.01
550;BME280;20066;48.764;9.176;2023-06-04T11:26:59;98285.81;;;29.71;22.35
550;BME280;20066;48.764;9.176;2023-06-04T11:29:50;98282.19;;;30.34;23.21
550;BME280;20066;48.764;9.176;2023-06-04T11:32:22;98279.34;;;27.31;24.46
550;BME280;20066;48.764;9.176;2023-06-04T11:34:50;98283.44;;;30.38;22.49
550;BME280;20066;48.764;9.176;2023-06-04T11:37:17;98273.00;;;30.14;22.71
550;BME280;20066;48.764;9.176;2023-06-04T11:39:45;98283.34;;;29.51;22.54
550;BME280;20066;48.764;9.176;2023-06-04T11:42:14;98289.06;;;31.17;21.14
550;BME280;20066;48.764;9.176;2023-06-04T11:44:42;98291.91;;;32.35;20.34
550;BME280;20066;48.764;9.176;2023-06-04T11:47:16;98280.94;;;30.70;21.78
550;BME280;20066;48.764;9.176;2023-06-04T11:49:45;98283.50;;;28.45;24.16
550;BME280;20066;48.764;9.176;2023-06-04T11:52:12;98276.19;;;31.62;20.97
550;BME280;20066;48.764;9.176;2023-06-04T11:54:40;98289.84;;;33.91;19.08
550;BME280;20066;48.764;9.176;2023-06-04T11:57:08;98283.31;;;31.58;20.61
550;BME280;20066;48.764;9.176;2023-06-04T11:59:36;98271.25;;;30.06;21.04
550;BME280;20066;48.764;9.176;2023-06-04T12:02:05;98274.50;;;32.79;19.31
550;BME280;20066;48.764;9.176;2023-06-04T12:04:35;98280.63;;;30.74;21.05
550;BME280;20066;48.764;9.176;2023-06-04T12:07:04;98267.69;;;29.70;22.02
550;BME280;20066;48.764;9.176;2023-06-04T12:09:33;98269.47;;;30.14;21.44
550;BME280;20066;48.764;9.176;2023-06-04T12:12:04;98265.22;;;30.73;20.72
550;BME280;20066;48.764;9.176;2023-06-04T12:14:32;98267.84;;;29.83;21.83
550;BME280;20066;48.764;9.176;2023-06-04T12:17:02;98260.69;;;29.41;22.22
550;BME280;20066;48.764;9.176;2023-06-04T12:19:33;98263.97;;;30.98;20.90
550;BME280;20066;48.764;9.176;2023-06-04T12:22:04;98264.94;;;31.30;20.90
550;BME280;20066;48.764;9.176;2023-06-04T12:24:33;98268.38;;;31.12;20.71
550;BME280;20066;48.764;9.176;2023-06-04T12:27:03;98260.69;;;29.46;21.31
550;BME280;20066;48.764;9.176;2023-06-04T12:29:32;98257.56;;;30.54;20.88
550;BME280;20066;48.764;9.176;2023-06-04T12:32:05;98255.84;;;29.64;21.78
550;BME280;20066;48.764;9.176;2023-06-04T12:34:37;98253.75;;;32.30;19.74
550;BME280;20066;48.764;9.176;2023-06-04T12:37:07;98257.22;;;32.17;19.94
550;BME280;20066;48.764;9.176;2023-06-04T12:39:36;98260.47;;;30.38;20.91
550;BME280;20066;48.764;9.176;2023-06-04T12:42:05;98265.59;;;32.81;18.79
550;BME280;20066;48.764;9.176;2023-06-04T12:44:35;98270.34;;;32.22;19.77
550;BME280;20066;48.764;9.176;2023-06-04T12:47:03;98252.72;;;29.84;21.32
550;BME280;20066;48.764;9.176;2023-06-04T12:49:31;98256.06;;;28.47;22.75
550;BME280;20066;48.764;9.176;2023-06-04T12:51:59;98258.72;;;30.65;20.17
550;BME280;20066;48.764;9.176;2023-06-04T12:54:28;98261.53;;;31.81;19.08
550;BME280;20066;48.764;9.176;2023-06-04T12:56:56;98264.66;;;32.60;17.96
550;BME280;20066;48.764;9.176;2023-06-04T12:59:24;98254.38;;;33.39;17.27
550;BME280;20066;48.764;9.176;2023-06-04T13:01:52;98255.69;;;32.35;19.44
550;BME280;20066;48.764;9.176;2023-06-04T13:04:20;98250.38;;;30.70;19.57
550;BME280;20066;48.764;9.176;2023-06-04T13:06:50;98257.59;;;33.43;18.12
550;BME280;20066;48.764;9.176;2023-06-04T13:09:21;98244.38;;;35.51;16.70
550;BME280;20066;48.764;9.176;2023-06-04T13:11:51;98248.28;;;32.69;17.14
550;BME280;20066;48.764;9.176;2023-06-04T13:14:19;98246.19;;;33.81;17.31
550;BME280;20066;48.764;9.176;2023-06-04T13:16:46;98242.53;;;29.98;20.21
550;BME280;20066;48.764;9.176;2023-06-04T13:19:15;98243.91;;;31.54;18.95
550;BME280;20066;48.764;9.176;2023-06-04T13:21:43;98246.34;;;31.20;18.83
550;BME280;20066;48.764;9.176;2023-06-04T13:24:11;98246.25;;;32.25;17.80
550;BME280;20066;48.764;9.176;2023-06-04T13:26:39;98244.09;;;33.94;16.29
550;BME280;20066;48.764;9.176;2023-06-04T13:29:10;98256.25;;;32.33;17.76
550;BME280;20066;48.764;9.176;2023-06-04T13:31:38;98251.78;;;31.50;17.78